Time;durP1;ratioP1;P1;durP2;ratioP2;P2;SDS_P1;SDS_P2;PMS_P1;PMS_P2;Temp;Humidity;BMP_temperature;BMP_pressure;BME280_temperature;BME280_humidity;BME280_pressure;Samples;Min_cycle;Max_cycle;Signal;HPM_P1;HPM_P2
2022/07/24 00:01:46;;;;;;;3.45;3.15;;;22.80;52.30;;;;;;941125;150;27366;-74
2022/07/24 00:04:12;;;;;;;3.22;3.02;;;22.80;52.50;;;;;;944208;150;27366;-74
2022/07/24 00:06:39;;;;;;;3.10;2.80;;;22.70;52.60;;;;;;944433;148;27273;-74
2022/07/24 00:09:05;;;;;;;3.08;2.87;;;22.70;52.80;;;;;;945095;149;27419;-75
2022/07/24 00:11:32;;;;;;;2.85;2.65;;;22.70;53.00;;;;;;943349;150;27306;-75
2022/07/24 00:13:59;;;;;;;4.92;3.00;;;22.70;53.00;;;;;;943005;150;27360;-78
2022/07/24 00:16:25;;;;;;;2.83;2.62;;;22.70;53.00;;;;;;943621;150;27696;-75
2022/07/24 00:18:52;;;;;;;3.50;3.17;;;22.70;53.10;;;;;;941354;148;28509;-74
2022/07/24 00:21:18;;;;;;;3.65;2.90;;;22.70;52.60;;;;;;939943;149;27300;-74
2022/07/24 00:23:45;;;;;;;3.45;2.70;;;22.70;53.20;;;;;;939078;149;27345;-75
2022/07/24 00:26:12;;;;;;;3.05;2.75;;;22.70;53.30;;;;;;941359;149;27408;-77
2022/07/24 00:28:38;;;;;;;2.80;2.60;;;22.70;53.40;;;;;;939920;149;27419;-75
2022/07/24 00:31:05;;;;;;;3.58;2.80;;;22.70;53.50;;;;;;939975;149;27389;-74
2022/07/24 00:33:31;;;;;;;3.30;2.80;;;22.70;53.60;;;;;;939298;149;27396;-74
2022/07/24 00:35:58;;;;;;;3.12;2.90;;;22.70;53.60;;;;;;939945;149;27326;-73
2022/07/24 00:38:24;;;;;;;3.05;2.75;;;22.80;53.70;;;;;;938343;149;27299;-74
2022/07/24 00:40:51;;;;;;;3.12;2.85;;;22.80;53.60;;;;;;941213;149;27314;-76
2022/07/24 00:43:18;;;;;;;2.62;2.42;;;22.80;53.60;;;;;;939417;149;27468;-74
2022/07/24 00:45:44;;;;;;;3.45;2.80;;;22.80;53.70;;;;;;938902;149;28617;-74
2022/07/24 00:48:11;;;;;;;4.65;3.02;;;22.80;53.80;;;;;;940198;149;27310;-73
2022/07/24 00:50:37;;;;;;;2.65;2.45;;;22.80;53.80;;;;;;939660;149;27311;-75
2022/07/24 00:53:04;;;;;;;3.35;3.15;;;22.70;53.70;;;;;;938889;149;27402;-78
2022/07/24 00:55:31;;;;;;;6.00;2.85;;;22.70;53.80;;;;;;939656;149;27375;-74
2022/07/24 00:57:57;;;;;;;2.95;2.65;;;22.70;53.80;;;;;;938992;149;27363;-75
2022/07/24 01:00:24;;;;;;;3.60;2.62;;;22.70;53.90;;;;;;940641;149;27304;-74
2022/07/24 01:02:50;;;;;;;3.12;2.80;;;22.70;54.10;;;;;;940829;149;27385;-75
2022/07/24 01:05:17;;;;;;;3.47;3.17;;;22.60;54.20;;;;;;940219;149;27379;-77
2022/07/24 01:07:44;;;;;;;2.77;2.52;;;22.60;54.30;;;;;;938885;149;27359;-75
2022/07/24 01:10:10;;;;;;;3.65;2.90;;;22.60;54.30;;;;;;940702;149;27900;-74
2022/07/24 01:12:37;;;;;;;4.35;2.70;;;22.60;54.30;;;;;;939065;149;27403;-74
2022/07/24 01:15:03;;;;;;;2.85;2.65;;;22.60;54.40;;;;;;939323;149;27812;-75
2022/07/24 01:17:30;;;;;;;3.95;3.00;;;22.60;54.30;;;;;;939354;149;27311;-75
2022/07/24 01:19:56;;;;;;;3.08;2.87;;;22.60;54.40;;;;;;936292;149;27378;-77
2022/07/24 01:22:23;;;;;;;2.87;2.67;;;22.60;54.50;;;;;;939540;149;27512;-74
2022/07/24 01:24:50;;;;;;;2.90;2.70;;;22.50;54.50;;;;;;939535;149;27343;-74
2022/07/24 01:27:16;;;;;;;3.20;2.80;;;22.50;54.70;;;;;;938298;149;27344;-74
2022/07/24 01:29:43;;;;;;;3.00;2.75;;;22.50;54.90;;;;;;938268;149;27326;-76
2022/07/24 01:32:09;;;;;;;3.02;2.83;;;22.40;54.90;;;;;;939915;149;27332;-76
2022/07/24 01:34:36;;;;;;;4.60;2.98;;;22.30;55.00;;;;;;939137;149;27476;-74
2022/07/24 01:37:03;;;;;;;3.27;2.98;;;22.20;55.10;;;;;;941014;149;27859;-74
2022/07/24 01:39:29;;;;;;;3.45;3.15;;;22.20;55.30;;;;;;939942;149;27307;-75
2022/07/24 01:41:56;;;;;;;3.55;3.25;;;22.10;55.40;;;;;;939579;149;27418;-74
2022/07/24 01:44:22;;;;;;;3.08;2.70;;;22.00;55.60;;;;;;942042;149;27343;-75
2022/07/24 01:46:49;;;;;;;3.85;3.35;;;21.90;55.80;;;;;;940162;149;27431;-74
2022/07/24 01:49:16;;;;;;;3.37;3.12;;;21.90;56.00;;;;;;939434;149;27451;-75
2022/07/24 01:51:42;;;;;;;3.33;3.02;;;21.80;56.10;;;;;;939209;149;27362;-74
2022/07/24 01:54:09;;;;;;;3.58;3.27;;;21.70;56.20;;;;;;941781;149;27415;-78
2022/07/24 01:56:35;;;;;;;4.35;3.08;;;21.70;56.50;;;;;;940121;147;27390;-75
2022/07/24 01:59:02;;;;;;;3.20;3.00;;;21.60;56.60;;;;;;939128;149;27317;-78
2022/07/24 02:01:31;;;;;;;3.08;2.85;;;21.60;56.80;;;;;;939639;149;27388;-74
2022/07/24 02:03:56;;;;;;;2.95;2.75;;;21.50;56.80;;;;;;940159;149;28421;-74
2022/07/24 02:06:22;;;;;;;3.15;2.95;;;21.50;56.90;;;;;;938403;149;27304;-74
2022/07/24 02:08:48;;;;;;;7.15;3.33;;;21.50;57.10;;;;;;938163;149;27330;-75
2022/07/24 02:11:15;;;;;;;3.80;3.50;;;21.40;57.30;;;;;;940019;149;27421;-76
2022/07/24 02:13:41;;;;;;;3.27;3.08;;;21.40;57.40;;;;;;940710;149;27344;-75
2022/07/24 02:16:08;;;;;;;3.65;3.35;;;21.30;57.60;;;;;;939881;149;27387;-75
2022/07/24 02:18:35;;;;;;;3.00;2.80;;;21.30;57.70;;;;;;940561;149;27319;-75
2022/07/24 02:21:01;;;;;;;3.05;2.85;;;21.30;57.80;;;;;;951706;147;27294;-74
2022/07/24 02:23:28;;;;;;;3.65;3.35;;;21.30;57.90;;;;;;953913;147;27382;-74
2022/07/24 02:25:54;;;;;;;4.90;3.30;;;21.30;58.00;;;;;;956577;147;27956;-78
2022/07/24 02:28:21;;;;;;;3.62;3.33;;;21.30;58.20;;;;;;954430;147;27370;-78
2022/07/24 02:30:48;;;;;;;3.42;3.12;;;21.30;58.20;;;;;;955631;147;27313;-78
2022/07/24 02:33:14;;;;;;;3.52;3.22;;;21.30;58.20;;;;;;954844;147;27295;-78
2022/07/24 02:35:41;;;;;;;4.03;3.15;;;21.40;58.20;;;;;;953256;147;27289;-78
2022/07/24 02:38:08;;;;;;;3.20;2.77;;;21.40;58.30;;;;;;954397;147;27420;-78
2022/07/24 02:40:34;;;;;;;3.40;3.10;;;21.40;58.30;;;;;;953930;147;27340;-78
2022/07/24 02:43:01;;;;;;;3.20;2.90;;;21.40;58.40;;;;;;955943;147;27306;-78
2022/07/24 02:45:27;;;;;;;3.40;3.10;;;21.50;58.40;;;;;;954144;147;27349;-78
2022/07/24 02:47:54;;;;;;;3.92;3.62;;;21.50;58.40;;;;;;955920;147;27325;-78
2022/07/24 02:50:20;;;;;;;3.67;3.37;;;21.50;58.50;;;;;;954794;147;27397;-78
2022/07/24 02:52:47;;;;;;;3.20;2.90;;;21.40;58.50;;;;;;953227;147;27384;-79
2022/07/24 02:55:13;;;;;;;3.33;3.12;;;21.40;58.60;;;;;;954231;147;27941;-79
2022/07/24 02:57:40;;;;;;;3.98;3.65;;;21.40;58.70;;;;;;954153;147;27413;-79
2022/07/24 03:00:07;;;;;;;3.17;2.98;;;21.40;58.70;;;;;;953453;147;27718;-79
2022/07/24 03:02:33;;;;;;;2.95;2.75;;;21.30;58.80;;;;;;954458;147;27291;-79
2022/07/24 03:05:00;;;;;;;3.58;3.20;;;21.30;58.90;;;;;;955200;147;27836;-78
2022/07/24 03:07:26;;;;;;;3.30;3.00;;;21.30;59.00;;;;;;953559;147;27430;-79
2022/07/24 03:09:53;;;;;;;3.10;2.85;;;21.30;59.10;;;;;;952955;147;27464;-79
2022/07/24 03:12:20;;;;;;;3.08;2.77;;;21.30;59.00;;;;;;954969;147;27260;-78
2022/07/24 03:14:46;;;;;;;2.72;2.52;;;21.40;59.20;;;;;;951283;147;27347;-79
2022/07/24 03:17:13;;;;;;;3.35;3.05;;;21.40;59.30;;;;;;953615;147;27394;-79
2022/07/24 03:19:39;;;;;;;3.80;3.22;;;21.50;59.40;;;;;;955587;147;27473;-79
2022/07/24 03:22:06;;;;;;;6.45;4.08;;;21.50;59.40;;;;;;954839;147;27342;-79
2022/07/24 03:24:33;;;;;;;5.28;3.08;;;21.60;59.50;;;;;;954359;147;27405;-79
2022/07/24 03:26:59;;;;;;;3.27;2.90;;;21.60;59.60;;;;;;955441;147;27390;-79
2022/07/24 03:29:26;;;;;;;3.10;2.90;;;21.60;59.60;;;;;;955951;147;27412;-79
2022/07/24 03:31:52;;;;;;;3.08;2.77;;;21.60;59.60;;;;;;954793;147;27345;-78
2022/07/24 03:34:19;;;;;;;3.58;2.95;;;21.70;59.60;;;;;;952666;147;27353;-79
2022/07/24 03:36:46;;;;;;;3.47;3.17;;;21.70;59.70;;;;;;957034;147;27286;-79
2022/07/24 03:39:12;;;;;;;3.72;3.40;;;21.70;59.70;;;;;;955294;147;27314;-79
2022/07/24 03:41:39;;;;;;;5.35;3.80;;;21.60;59.70;;;;;;955906;147;27322;-80
2022/07/24 03:44:06;;;;;;;3.45;3.15;;;21.60;59.70;;;;;;956200;147;27375;-78
2022/07/24 03:46:32;;;;;;;3.25;3.02;;;21.60;59.70;;;;;;954347;147;27635;-80
2022/07/24 03:48:59;;;;;;;3.22;3.02;;;21.60;59.80;;;;;;955873;147;27330;-79
2022/07/24 03:51:25;;;;;;;3.42;3.12;;;21.60;59.80;;;;;;955262;147;27369;-79
2022/07/24 03:53:52;;;;;;;3.40;3.10;;;21.50;59.80;;;;;;955680;147;27343;-79
2022/07/24 03:56:18;;;;;;;3.22;3.02;;;21.50;59.80;;;;;;955714;147;27427;-79
2022/07/24 03:58:45;;;;;;;3.08;2.77;;;21.50;60.00;;;;;;956260;147;27350;-77
2022/07/24 04:01:11;;;;;;;3.33;2.85;;;21.50;60.10;;;;;;954919;147;27365;-80
2022/07/24 04:03:38;;;;;;;4.05;3.20;;;21.50;60.30;;;;;;956076;147;27383;-79
2022/07/24 04:06:05;;;;;;;3.00;2.80;;;21.40;60.40;;;;;;953681;147;27268;-79
2022/07/24 04:08:31;;;;;;;3.47;3.17;;;21.40;60.40;;;;;;954876;147;27279;-79
2022/07/24 04:10:58;;;;;;;3.37;3.10;;;21.40;60.70;;;;;;955576;147;27373;-79
2022/07/24 04:13:24;;;;;;;3.65;3.17;;;21.40;60.90;;;;;;953600;147;27325;-79
2022/07/24 04:15:51;;;;;;;3.25;3.05;;;21.40;61.00;;;;;;954312;147;27360;-79
2022/07/24 04:18:18;;;;;;;3.05;2.85;;;21.50;61.20;;;;;;956196;147;27314;-79
2022/07/24 04:20:44;;;;;;;4.55;3.47;;;21.50;61.30;;;;;;946243;147;27354;-78
2022/07/24 04:23:11;;;;;;;3.83;2.87;;;21.50;61.30;;;;;;938347;149;27379;-78
2022/07/24 04:25:37;;;;;;;3.08;2.70;;;21.50;61.40;;;;;;940993;149;27338;-79
2022/07/24 04:28:04;;;;;;;3.80;3.50;;;21.60;62.20;;;;;;938740;149;28426;-79
2022/07/24 04:30:31;;;;;;;3.00;2.80;;;21.60;61.40;;;;;;938823;149;27307;-79
2022/07/24 04:32:57;;;;;;;2.98;2.72;;;21.70;61.20;;;;;;939332;149;27403;-79
2022/07/24 04:35:24;;;;;;;3.62;2.80;;;21.70;61.00;;;;;;939245;149;27364;-79
2022/07/24 04:37:50;;;;;;;3.05;2.70;;;21.80;61.00;;;;;;937513;149;27370;-79
2022/07/24 04:40:17;;;;;;;7.30;2.80;;;21.90;61.70;;;;;;938606;149;27438;-79
2022/07/24 04:42:43;;;;;;;3.20;2.90;;;21.90;61.00;;;;;;940392;149;27399;-79
2022/07/24 04:45:10;;;;;;;3.20;3.00;;;22.00;61.00;;;;;;939829;149;27296;-79
2022/07/24 04:47:37;;;;;;;3.45;3.20;;;22.10;61.10;;;;;;939546;149;27809;-79
2022/07/24 04:50:03;;;;;;;3.08;2.87;;;22.10;61.10;;;;;;940787;149;27409;-79
2022/07/24 04:52:30;;;;;;;3.75;3.40;;;22.20;61.20;;;;;;940106;149;27381;-80
2022/07/24 04:54:56;;;;;;;3.50;3.20;;;22.20;61.10;;;;;;937280;149;27494;-80
2022/07/24 04:57:23;;;;;;;3.50;3.20;;;22.30;61.10;;;;;;939047;149;27437;-79
2022/07/24 04:59:50;;;;;;;3.72;3.42;;;22.30;61.10;;;;;;939144;149;27331;-80
2022/07/24 05:02:16;;;;;;;3.98;3.67;;;22.40;61.10;;;;;;939563;149;27294;-77
2022/07/24 05:04:43;;;;;;;4.10;3.75;;;22.40;61.00;;;;;;939684;149;27374;-78
2022/07/24 05:07:09;;;;;;;5.10;3.37;;;22.50;61.10;;;;;;939405;149;27362;-79
2022/07/24 05:09:36;;;;;;;3.83;3.60;;;22.60;61.10;;;;;;937295;149;27308;-79
2022/07/24 05:12:03;;;;;;;3.45;3.15;;;22.60;61.10;;;;;;940381;149;27411;-79
2022/07/24 05:14:29;;;;;;;4.22;3.67;;;22.70;61.00;;;;;;939790;149;27838;-79
2022/07/24 05:16:56;;;;;;;3.37;3.15;;;22.90;61.30;;;;;;939226;149;27442;-77
2022/07/24 05:19:22;;;;;;;4.22;3.45;;;23.10;61.90;;;;;;939262;149;27364;-79
2022/07/24 05:21:49;;;;;;;4.22;3.60;;;23.40;62.40;;;;;;949480;147;27431;-79
2022/07/24 05:24:15;;;;;;;3.80;3.50;;;23.70;62.10;;;;;;954535;147;27505;-79
2022/07/24 05:26:42;;;;;;;4.03;3.72;;;24.10;61.40;;;;;;953890;147;27361;-79
2022/07/24 05:29:09;;;;;;;3.90;3.50;;;24.40;60.70;;;;;;954611;147;27383;-77
2022/07/24 05:31:35;;;;;;;3.50;3.10;;;24.80;60.40;;;;;;955781;146;27363;-79
2022/07/24 05:34:02;;;;;;;4.80;2.72;;;25.10;60.20;;;;;;952380;147;27460;-80
2022/07/24 05:36:28;;;;;;;3.10;2.90;;;25.50;60.30;;;;;;952584;147;27314;-79
2022/07/24 05:38:55;;;;;;;3.60;3.30;;;25.90;59.90;;;;;;954785;147;27303;-80
2022/07/24 05:41:22;;;;;;;3.35;3.12;;;26.40;59.40;;;;;;952800;147;27403;-78
2022/07/24 05:43:48;;;;;;;3.27;3.08;;;26.90;59.20;;;;;;955539;147;27448;-80
2022/07/24 05:46:15;;;;;;;3.27;3.05;;;27.50;59.00;;;;;;954051;147;27449;-80
2022/07/24 05:48:41;;;;;;;3.52;3.22;;;28.00;58.50;;;;;;954022;147;27404;-80
2022/07/24 05:51:08;;;;;;;3.70;3.40;;;28.60;57.80;;;;;;954831;147;27400;-80
2022/07/24 05:53:35;;;;;;;3.22;3.02;;;29.20;56.80;;;;;;954222;147;27407;-80
2022/07/24 05:56:01;;;;;;;3.33;3.12;;;29.70;55.80;;;;;;954680;147;27360;-80
2022/07/24 05:58:28;;;;;;;3.50;3.30;;;30.30;55.80;;;;;;955720;147;27782;-80
2022/07/24 06:00:54;;;;;;;3.10;2.90;;;30.70;54.60;;;;;;956277;147;27658;-80
2022/07/24 06:03:21;;;;;;;4.15;3.33;;;31.20;54.00;;;;;;955800;147;27303;-80
2022/07/24 06:05:47;;;;;;;3.20;3.00;;;31.60;53.30;;;;;;952813;147;27384;-80
2022/07/24 06:08:14;;;;;;;3.17;2.98;;;32.00;52.30;;;;;;953387;147;27319;-78
2022/07/24 06:10:41;;;;;;;3.20;3.00;;;32.30;51.50;;;;;;955422;147;27346;-79
2022/07/24 06:13:07;;;;;;;3.12;2.83;;;32.70;51.30;;;;;;955550;147;27686;-80
2022/07/24 06:15:34;;;;;;;3.50;3.20;;;33.00;50.90;;;;;;954316;146;27292;-78
2022/07/24 06:18:00;;;;;;;3.02;2.83;;;33.40;50.40;;;;;;953045;147;27286;-79
2022/07/24 06:20:27;;;;;;;3.33;3.02;;;33.70;50.00;;;;;;954910;147;27437;-77
2022/07/24 06:22:54;;;;;;;2.62;2.50;;;34.20;49.80;;;;;;941207;147;26306;-78
2022/07/24 06:25:20;;;;;;;3.00;2.77;;;34.70;49.50;;;;;;938473;149;26815;-78
2022/07/24 06:27:47;;;;;;;2.77;2.58;;;35.20;49.00;;;;;;939381;149;26230;-78
2022/07/24 06:30:13;;;;;;;2.75;2.55;;;35.70;48.40;;;;;;938570;149;26330;-78
2022/07/24 06:32:40;;;;;;;2.62;2.42;;;36.30;47.70;;;;;;938512;149;26324;-77
2022/07/24 06:35:07;;;;;;;2.60;2.40;;;36.80;46.80;;;;;;939200;149;26180;-77
2022/07/24 06:37:33;;;;;;;2.58;2.37;;;37.30;45.90;;;;;;939398;149;27360;-77
2022/07/24 06:40:00;;;;;;;2.50;2.30;;;37.70;44.90;;;;;;939434;149;26246;-79
2022/07/24 06:42:26;;;;;;;2.67;2.47;;;38.00;44.30;;;;;;938802;149;26195;-78
2022/07/24 06:44:53;;;;;;;2.50;2.33;;;38.40;43.80;;;;;;939094;149;26332;-78
2022/07/24 06:47:19;;;;;;;2.55;2.25;;;38.60;43.20;;;;;;939480;149;26234;-77
2022/07/24 06:49:46;;;;;;;3.10;2.10;;;39.00;42.80;;;;;;939242;149;26286;-78
2022/07/24 06:52:13;;;;;;;2.58;2.37;;;39.30;42.30;;;;;;939256;149;26382;-79
2022/07/24 06:54:41;;;;;;;3.17;2.05;;;39.70;41.70;;;;;;939257;149;26324;-79
2022/07/24 06:57:06;;;;;;;2.20;2.10;;;40.00;41.20;;;;;;936886;149;26242;-78
2022/07/24 06:59:32;;;;;;;2.65;2.15;;;40.40;40.70;;;;;;938051;149;27944;-79
2022/07/24 07:01:59;;;;;;;2.25;2.15;;;40.70;40.20;;;;;;939538;149;26271;-79
2022/07/24 07:04:26;;;;;;;2.58;2.08;;;41.10;39.50;;;;;;939177;149;26367;-79
2022/07/24 07:06:52;;;;;;;3.40;2.08;;;41.50;39.00;;;;;;939637;149;26269;-79
2022/07/24 07:09:19;;;;;;;1.90;1.80;;;41.90;38.30;;;;;;941317;149;26214;-79
2022/07/24 07:11:45;;;;;;;2.08;1.92;;;42.30;37.80;;;;;;939027;149;26308;-80
2022/07/24 07:14:12;;;;;;;2.10;2.00;;;42.60;37.20;;;;;;939165;149;26245;-79
2022/07/24 07:16:39;;;;;;;2.10;1.90;;;43.00;36.40;;;;;;940140;149;26347;-80
2022/07/24 07:19:05;;;;;;;2.20;2.00;;;43.40;35.90;;;;;;939104;149;26312;-79
2022/07/24 07:21:32;;;;;;;1.90;1.80;;;43.70;35.10;;;;;;940673;149;26224;-79
2022/07/24 07:23:58;;;;;;;2.92;2.20;;;43.90;34.70;;;;;;938620;149;26195;-80
2022/07/24 07:26:25;;;;;;;2.15;2.05;;;44.10;34.10;;;;;;938547;149;26832;-80
2022/07/24 07:28:52;;;;;;;2.20;2.00;;;44.30;33.80;;;;;;940327;149;26247;-79
2022/07/24 07:31:18;;;;;;;2.22;2.12;;;44.50;33.50;;;;;;940636;149;26492;-80
2022/07/24 07:33:45;;;;;;;2.10;1.90;;;44.80;33.70;;;;;;937485;149;26260;-80
2022/07/24 07:36:11;;;;;;;2.02;1.92;;;45.10;33.10;;;;;;939935;149;26210;-80
2022/07/24 07:38:38;;;;;;;2.45;2.25;;;45.30;32.30;;;;;;939466;149;26299;-80
2022/07/24 07:41:04;;;;;;;2.20;1.90;;;45.60;31.90;;;;;;939361;149;26286;-80
2022/07/24 07:43:31;;;;;;;1.92;1.82;;;45.80;31.60;;;;;;941505;149;26367;-80
2022/07/24 07:45:58;;;;;;;2.85;1.95;;;46.00;31.30;;;;;;940323;149;26331;-80
2022/07/24 07:48:24;;;;;;;1.98;1.87;;;46.30;31.10;;;;;;937905;149;26316;-79
2022/07/24 07:50:51;;;;;;;2.37;2.20;;;46.50;30.80;;;;;;939814;149;26180;-78
2022/07/24 07:53:18;;;;;;;2.17;1.90;;;46.70;30.30;;;;;;940165;149;26346;-78
2022/07/24 07:55:44;;;;;;;2.35;2.02;;;47.00;30.20;;;;;;939230;149;26258;-79
2022/07/24 07:58:11;;;;;;;1.80;1.70;;;47.20;29.80;;;;;;938899;149;26219;-80
2022/07/24 08:00:37;;;;;;;1.72;1.62;;;47.50;29.70;;;;;;939286;149;26308;-80
2022/07/24 08:03:04;;;;;;;2.12;1.92;;;47.60;29.40;;;;;;941826;149;26721;-80
2022/07/24 08:05:30;;;;;;;2.30;2.10;;;47.80;29.20;;;;;;940381;149;26220;-80
2022/07/24 08:07:57;;;;;;;1.85;1.75;;;48.00;29.00;;;;;;938067;149;26920;-81
2022/07/24 08:10:24;;;;;;;2.02;1.92;;;48.30;28.80;;;;;;938708;149;26218;-80
2022/07/24 08:12:50;;;;;;;2.00;1.90;;;48.50;28.60;;;;;;940479;149;26191;-81
2022/07/24 08:15:17;;;;;;;1.87;1.77;;;48.70;28.20;;;;;;938967;149;26234;-81
2022/07/24 08:17:43;;;;;;;2.27;1.95;;;49.00;28.00;;;;;;939403;149;26353;-81
2022/07/24 08:20:10;;;;;;;1.85;1.75;;;49.20;27.70;;;;;;940441;149;26342;-82
2022/07/24 08:22:36;;;;;;;1.75;1.65;;;49.50;27.70;;;;;;939143;149;26254;-81
2022/07/24 08:25:03;;;;;;;2.02;1.82;;;49.70;27.60;;;;;;938865;149;26226;-81
2022/07/24 08:27:30;;;;;;;1.98;1.87;;;49.90;27.00;;;;;;937653;149;27956;-81
2022/07/24 08:29:56;;;;;;;2.00;1.90;;;50.20;26.80;;;;;;937445;149;26262;-80
2022/07/24 08:32:23;;;;;;;2.22;2.02;;;50.40;26.50;;;;;;938428;149;26339;-82
2022/07/24 08:34:49;;;;;;;1.77;1.67;;;50.60;26.30;;;;;;940912;149;26599;-81
2022/07/24 08:37:16;;;;;;;1.80;1.70;;;50.70;26.20;;;;;;940261;149;26219;-81
2022/07/24 08:39:43;;;;;;;1.87;1.60;;;50.80;25.90;;;;;;941495;149;26167;-82
2022/07/24 08:42:09;;;;;;;1.77;1.67;;;50.80;25.80;;;;;;938675;149;26231;-81
2022/07/24 08:44:36;;;;;;;1.72;1.62;;;50.90;25.60;;;;;;937088;149;26289;-81
2022/07/24 08:47:02;;;;;;;1.80;1.70;;;51.00;25.40;;;;;;938333;149;26652;-82
2022/07/24 08:49:29;;;;;;;1.67;1.60;;;51.10;25.20;;;;;;938417;149;26215;-82
2022/07/24 08:51:56;;;;;;;1.95;1.80;;;51.20;25.10;;;;;;939124;149;26283;-81
2022/07/24 08:54:22;;;;;;;1.85;1.75;;;51.30;24.80;;;;;;938501;149;26284;-81
2022/07/24 08:56:49;;;;;;;1.90;1.80;;;51.50;24.80;;;;;;941267;149;26658;-79
2022/07/24 08:59:18;;;;;;;2.02;1.85;;;51.60;24.50;;;;;;940264;149;26270;-82
2022/07/24 09:01:45;;;;;;;1.80;1.70;;;51.60;24.20;;;;;;939257;149;26197;-81
2022/07/24 09:04:45;;;;;;;1.90;1.80;;;51.70;24.10;;;;;;938653;149;26331;-82
2022/07/24 09:07:14;;;;;;;1.60;1.50;;;51.60;23.90;;;;;;938645;149;26342;-81
2022/07/24 09:09:41;;;;;;;1.65;1.55;;;51.60;23.90;;;;;;937848;149;26207;-81
2022/07/24 09:12:14;;;;;;;2.60;1.80;;;51.50;24.40;;;;;;938429;149;26374;-79
2022/07/24 09:14:40;;;;;;;2.90;2.70;;;51.50;23.90;;;;;;938718;149;26375;-81
2022/07/24 09:17:10;;;;;;;2.62;2.42;;;51.50;23.80;;;;;;941147;149;26207;-81
2022/07/24 09:19:46;;;;;;;2.02;1.92;;;51.50;23.50;;;;;;939938;149;26392;-81
2022/07/24 09:22:32;;;;;;;2.02;1.92;;;51.50;23.30;;;;;;935091;149;26922;-80
2022/07/24 09:25:15;;;;;;;1.72;1.62;;;51.50;23.10;;;;;;938927;149;26395;-80
2022/07/24 09:27:42;;;;;;;2.00;1.90;;;51.50;23.00;;;;;;938128;149;26238;-82
2022/07/24 09:30:09;;;;;;;2.08;1.98;;;51.30;22.90;;;;;;937251;149;26266;-79
2022/07/24 09:32:36;;;;;;;2.00;1.90;;;51.20;22.90;;;;;;936596;149;26840;-81
2022/07/24 09:35:02;;;;;;;2.30;1.82;;;51.20;22.90;;;;;;938827;149;26263;-81
2022/07/24 09:37:28;;;;;;;3.17;1.92;;;51.00;22.80;;;;;;937770;149;26271;-80
2022/07/24 09:39:55;;;;;;;1.90;1.80;;;50.80;22.90;;;;;;938388;149;26768;-80
2022/07/24 09:42:22;;;;;;;3.27;1.95;;;50.80;23.00;;;;;;935749;149;26242;-80
2022/07/24 09:44:48;;;;;;;2.83;1.98;;;50.80;23.10;;;;;;936801;149;26241;-82
2022/07/24 09:47:15;;;;;;;1.82;1.72;;;50.80;22.90;;;;;;935641;149;27454;-81
2022/07/24 09:49:41;;;;;;;1.90;1.80;;;50.70;22.60;;;;;;938173;149;26296;-80
2022/07/24 09:52:14;;;;;;;3.42;1.80;;;50.50;22.70;;;;;;938054;149;26261;-80
2022/07/24 09:54:47;;;;;;;1.98;1.87;;;50.40;22.70;;;;;;939794;149;26339;-78
2022/07/24 09:57:24;;;;;;;1.57;1.47;;;50.20;22.60;;;;;;938590;149;27646;-80
2022/07/24 10:00:00;;;;;;;1.77;1.70;;;50.00;22.70;;;;;;937502;149;26232;-81
2022/07/24 10:02:26;;;;;;;2.15;1.90;;;49.90;23.20;;;;;;939609;149;26236;-80
2022/07/24 10:04:53;;;;;;;1.90;1.80;;;49.70;22.80;;;;;;939215;149;26261;-79
2022/07/24 10:07:19;;;;;;;2.05;1.95;;;49.50;22.60;;;;;;940453;149;26285;-81
2022/07/24 10:09:46;;;;;;;2.10;1.75;;;49.30;22.60;;;;;;939819;149;26209;-81
2022/07/24 10:12:13;;;;;;;2.02;1.90;;;49.10;22.60;;;;;;936736;149;26271;-81
2022/07/24 10:14:40;;;;;;;2.20;2.00;;;48.70;22.50;;;;;;938793;149;26206;-81
2022/07/24 10:17:06;;;;;;;2.00;1.90;;;48.20;22.60;;;;;;936987;149;26231;-79
2022/07/24 10:19:35;;;;;;;2.60;2.15;;;47.90;22.80;;;;;;939611;149;26261;-81
2022/07/24 10:22:02;;;;;;;2.10;2.00;;;47.50;22.90;;;;;;939128;149;26239;-81
2022/07/24 10:24:34;;;;;;;2.33;2.08;;;47.10;23.00;;;;;;938000;149;26327;-81
2022/07/24 10:27:04;;;;;;;2.45;2.02;;;46.80;23.00;;;;;;936423;149;26230;-81
2022/07/24 10:29:31;;;;;;;3.02;2.83;;;46.40;23.10;;;;;;939467;149;26247;-79
2022/07/24 10:31:58;;;;;;;2.25;2.15;;;46.10;23.10;;;;;;937635;149;26286;-79
2022/07/24 10:34:39;;;;;;;2.70;2.42;;;45.70;23.20;;;;;;939050;149;26363;-79
2022/07/24 10:37:33;;;;;;;2.70;2.50;;;45.20;23.30;;;;;;939029;149;26221;-79
2022/07/24 10:40:27;;;;;;;2.75;2.55;;;44.70;23.40;;;;;;938901;149;27416;-79
2022/07/24 10:43:05;;;;;;;2.58;2.37;;;44.10;23.60;;;;;;938684;149;26730;-80
2022/07/24 10:45:32;;;;;;;2.90;2.70;;;43.50;23.80;;;;;;938250;149;26191;-79
2022/07/24 10:47:58;;;;;;;2.75;2.50;;;42.90;24.10;;;;;;939360;149;27372;-80
2022/07/24 10:50:25;;;;;;;3.47;3.02;;;42.40;24.30;;;;;;939215;149;26355;-80
2022/07/24 10:52:52;;;;;;;2.92;2.70;;;42.00;24.80;;;;;;935111;149;26388;-80
2022/07/24 10:55:30;;;;;;;3.05;2.85;;;41.60;25.00;;;;;;939131;149;26365;-80
2022/07/24 10:58:02;;;;;;;3.17;2.90;;;41.20;25.20;;;;;;938444;149;26215;-79
2022/07/24 11:00:32;;;;;;;3.45;3.05;;;41.00;25.40;;;;;;939807;149;26292;-80
2022/07/24 11:03:01;;;;;;;3.62;3.35;;;40.60;25.60;;;;;;939140;149;26167;-79
2022/07/24 11:05:37;;;;;;;3.37;3.15;;;40.30;25.70;;;;;;938484;149;27381;-80
2022/07/24 11:08:12;;;;;;;3.58;3.27;;;40.10;25.90;;;;;;938604;149;26343;-79
2022/07/24 11:10:54;;;;;;;3.75;3.40;;;39.80;25.90;;;;;;937494;149;27408;-77
2022/07/24 11:13:33;;;;;;;3.35;3.02;;;39.70;26.20;;;;;;937454;149;26301;-78
2022/07/24 11:16:12;;;;;;;3.95;3.35;;;39.50;26.20;;;;;;940315;149;27343;-81
2022/07/24 11:18:38;;;;;;;3.42;3.22;;;39.20;26.30;;;;;;938677;149;27477;-80
2022/07/24 11:21:05;;;;;;;3.60;3.33;;;39.00;26.40;;;;;;940160;149;27257;-82
2022/07/24 11:23:31;;;;;;;3.72;3.47;;;38.80;26.70;;;;;;939670;149;26255;-79
2022/07/24 11:26:32;;;;;;;4.05;3.00;;;38.50;26.80;;;;;;949276;147;27386;-79
2022/07/24 11:29:17;;;;;;;4.58;3.40;;;38.30;27.10;;;;;;951339;147;27441;-80
2022/07/24 11:31:46;;;;;;;3.37;3.12;;;38.20;27.40;;;;;;952700;147;27888;-81
2022/07/24 11:34:12;;;;;;;3.55;3.25;;;38.00;27.40;;;;;;954007;147;27319;-81
2022/07/24 11:36:42;;;;;;;3.27;3.08;;;37.90;27.50;;;;;;951633;147;27315;-80
2022/07/24 11:39:08;;;;;;;3.50;3.20;;;37.90;27.60;;;;;;950977;147;27448;-81
2022/07/24 11:41:50;;;;;;;3.37;3.10;;;37.80;27.70;;;;;;954055;147;27248;-79
2022/07/24 11:44:25;;;;;;;3.40;3.20;;;37.80;27.80;;;;;;952291;147;27330;-81
2022/07/24 11:46:52;;;;;;;4.03;3.72;;;37.70;28.00;;;;;;938150;147;27310;-81
2022/07/24 11:49:18;;;;;;;3.40;3.10;;;37.70;28.10;;;;;;955307;147;27315;-80
2022/07/24 11:51:45;;;;;;;4.05;3.55;;;37.60;28.10;;;;;;952032;147;27398;-80
2022/07/24 11:54:11;;;;;;;3.30;2.85;;;37.60;28.20;;;;;;955958;147;27761;-78
2022/07/24 11:56:38;;;;;;;4.20;3.45;;;37.50;28.30;;;;;;953970;147;27444;-81
2022/07/24 11:59:05;;;;;;;3.75;3.42;;;37.50;28.30;;;;;;954864;147;27353;-81
2022/07/24 12:01:31;;;;;;;3.65;2.98;;;37.40;28.30;;;;;;953219;147;27388;-80
2022/07/24 12:03:58;;;;;;;3.98;3.15;;;37.20;28.40;;;;;;953872;147;27287;-81
2022/07/24 12:06:24;;;;;;;3.83;3.52;;;37.10;28.50;;;;;;953577;147;27912;-80
2022/07/24 12:08:51;;;;;;;5.03;3.72;;;37.00;28.70;;;;;;954434;147;27374;-81
2022/07/24 12:11:23;;;;;;;3.98;3.67;;;36.80;28.70;;;;;;952487;147;27435;-81
2022/07/24 12:13:52;;;;;;;3.30;3.08;;;36.70;28.70;;;;;;953160;147;27715;-80
2022/07/24 12:16:23;;;;;;;3.87;3.58;;;36.60;28.90;;;;;;954180;147;27265;-80
2022/07/24 12:18:49;;;;;;;3.25;3.05;;;36.60;29.10;;;;;;951989;147;27435;-79
2022/07/24 12:21:17;;;;;;;3.30;3.10;;;36.50;29.10;;;;;;953246;147;27334;-81
2022/07/24 12:23:42;;;;;;;3.52;3.22;;;36.50;29.10;;;;;;954989;147;27335;-79
2022/07/24 12:26:09;;;;;;;3.87;3.58;;;36.50;29.20;;;;;;952272;147;28270;-78
2022/07/24 12:28:36;;;;;;;5.35;3.70;;;36.40;29.30;;;;;;953049;147;27322;-81
2022/07/24 12:31:02;;;;;;;3.58;3.27;;;36.40;29.40;;;;;;953502;147;27406;-79
2022/07/24 12:33:33;;;;;;;3.77;3.42;;;36.40;29.30;;;;;;951221;147;27382;-80
2022/07/24 12:36:01;;;;;;;3.62;2.90;;;36.40;29.30;;;;;;952843;147;27341;-80
2022/07/24 12:38:28;;;;;;;3.20;3.00;;;36.40;29.20;;;;;;953438;147;27416;-80
2022/07/24 12:41:07;;;;;;;3.83;3.20;;;36.40;29.20;;;;;;951797;147;27415;-79
2022/07/24 12:43:33;;;;;;;3.72;3.30;;;36.40;29.20;;;;;;953593;147;27395;-81
2022/07/24 12:46:06;;;;;;;3.35;2.80;;;36.40;28.80;;;;;;952507;147;27295;-79
2022/07/24 12:48:32;;;;;;;3.17;2.95;;;36.50;29.40;;;;;;952309;147;27362;-81
2022/07/24 12:51:01;;;;;;;3.75;3.45;;;36.50;29.40;;;;;;953218;147;27423;-81